createdAt,value
2022-12-06T03:26:10.122Z,4.70
2022-12-06T03:27:15.040Z,4.30
2022-12-06T03:28:17.187Z,4.50
2022-12-06T03:29:20.669Z,4.00
2022-12-06T03:30:22.856Z,3.10
2022-12-06T03:31:25.362Z,3.70
2022-12-06T03:32:30.590Z,3.80
2022-12-06T03:33:33.023Z,4.00
2022-12-06T03:34:38.416Z,4.70
2022-12-06T03:35:41.238Z,3.80
2022-12-06T03:36:44.995Z,4.50
2022-12-06T03:37:51.417Z,4.80
2022-12-06T03:38:55.572Z,3.80
2022-12-06T03:40:08.425Z,3.50
2022-12-06T03:41:10.558Z,4.40
2022-12-06T03:42:12.664Z,2.70
2022-12-06T03:43:14.764Z,3.80
2022-12-06T03:44:17.459Z,5.00
2022-12-06T03:45:20.173Z,3.50
2022-12-06T03:47:58.692Z,3.30
2022-12-06T03:50:25.028Z,3.40
2022-12-06T03:51:30.195Z,4.60
2022-12-06T03:52:33.397Z,4.00
2022-12-06T03:53:38.418Z,2.90
2022-12-06T03:54:41.971Z,3.20
2022-12-06T03:55:44.481Z,3.20
2022-12-06T03:56:46.663Z,3.60
2022-12-06T03:57:48.786Z,3.40
2022-12-06T03:58:50.872Z,3.10
2022-12-06T04:00:07.497Z,2.90
2022-12-06T04:01:11.924Z,3.80
2022-12-06T04:02:14.434Z,3.50
2022-12-06T04:03:17.936Z,3.40
2022-12-06T04:04:20.317Z,3.30
2022-12-06T04:05:22.549Z,3.70
2022-12-06T04:06:25.022Z,3.60
2022-12-06T04:07:27.008Z,3.50
2022-12-06T04:08:29.089Z,4.40
2022-12-06T04:09:31.204Z,4.00
2022-12-06T04:10:33.435Z,4.40
2022-12-06T04:11:35.969Z,4.20
2022-12-06T04:12:38.838Z,2.27
2022-12-06T04:13:41.896Z,3.50
2022-12-06T04:14:44.146Z,4.60
2022-12-06T04:15:46.790Z,4.90
2022-12-06T04:16:49.752Z,4.00
2022-12-06T04:17:52.183Z,4.40
2022-12-06T04:18:54.771Z,3.20
2022-12-06T04:19:57.217Z,2.91
2022-12-06T04:21:02.854Z,3.50
2022-12-06T04:22:05.027Z,4.10
2022-12-06T04:23:07.475Z,3.40
2022-12-06T04:24:09.593Z,3.90
2022-12-06T04:25:12.097Z,4.40
2022-12-06T04:26:17.603Z,2.20
2022-12-06T04:27:20.948Z,3.70
2022-12-06T04:28:23.078Z,1.50
2022-12-06T04:29:25.175Z,3.90
2022-12-06T04:30:27.709Z,3.90
2022-12-06T04:31:30.846Z,3.70
2022-12-06T04:32:33.274Z,1.30
2022-12-06T04:33:35.324Z,4.20
2022-12-06T04:34:37.452Z,3.60
2022-12-06T04:35:39.504Z,4.10
2022-12-06T04:36:42.655Z,0.09
2022-12-06T04:37:45.454Z,3.40
2022-12-06T04:38:48.058Z,3.50
2022-12-06T04:39:51.031Z,2.40
2022-12-06T04:40:53.226Z,3.90
2022-12-06T04:41:58.389Z,3.20
2022-12-06T04:43:00.561Z,3.40
2022-12-06T04:44:04.811Z,3.70
2022-12-06T04:45:08.425Z,0.00
2022-12-06T04:46:12.245Z,3.70
2022-12-06T04:47:15.497Z,3.00
2022-12-06T04:48:17.854Z,3.60
2022-12-06T04:49:20.560Z,3.40
2022-12-06T04:50:22.831Z,4.00
2022-12-06T04:51:25.171Z,3.80
2022-12-06T04:52:34.056Z,3.30
2022-12-06T04:53:32.524Z,3.10
2022-12-06T04:54:34.921Z,2.40
2022-12-06T04:55:37.002Z,2.40
2022-12-06T04:56:39.072Z,3.10
2022-12-06T04:57:41.239Z,3.50
2022-12-06T04:58:43.884Z,0.90
2022-12-06T04:59:45.937Z,1.70
2022-12-06T05:00:52.649Z,3.20
2022-12-06T05:01:56.303Z,2.70
2022-12-06T05:02:58.462Z,3.50
2022-12-06T05:04:01.482Z,3.60
2022-12-06T05:05:05.107Z,2.60
2022-12-06T05:06:08.985Z,2.60
2022-12-06T05:07:11.445Z,2.50
2022-12-06T05:08:13.892Z,4.30
2022-12-06T05:09:16.415Z,3.30
2022-12-06T05:10:19.809Z,3.70
2022-12-06T05:11:22.141Z,3.80
2022-12-06T05:12:24.419Z,3.10
2022-12-06T05:13:26.625Z,2.80
2022-12-06T05:14:29.196Z,3.30
2022-12-06T05:15:31.516Z,3.00
2022-12-06T05:16:34.583Z,2.00
2022-12-06T05:17:36.971Z,3.70
2022-12-06T05:18:39.260Z,2.90
2022-12-06T05:19:42.027Z,2.30
2022-12-06T05:20:45.292Z,2.20
2022-12-06T05:21:47.949Z,3.00
2022-12-06T05:22:50.357Z,2.90
2022-12-06T05:23:54.455Z,2.70
2022-12-06T05:24:56.667Z,2.30
2022-12-06T05:27:12.855Z,0.20
2022-12-06T05:28:15.316Z,2.00
2022-12-06T05:29:17.598Z,3.10
2022-12-06T05:30:20.084Z,2.40
2022-12-06T05:31:22.429Z,2.60
2022-12-06T05:32:24.706Z,3.30
2022-12-06T05:33:27.215Z,2.10
2022-12-06T05:34:30.840Z,3.00
2022-12-06T05:35:33.987Z,2.30
2022-12-06T05:36:36.620Z,2.73
2022-12-06T05:37:38.981Z,2.90
2022-12-06T05:38:41.744Z,2.20
2022-12-06T05:39:44.703Z,1.60
2022-12-06T05:40:47.091Z,3.40
2022-12-06T05:41:49.778Z,2.80
2022-12-06T05:42:53.022Z,3.80
2022-12-06T05:43:56.001Z,2.90
2022-12-06T05:44:57.986Z,2.60
2022-12-06T05:46:00.276Z,2.90
2022-12-06T05:47:02.575Z,3.10
2022-12-06T05:48:05.575Z,3.00
2022-12-06T05:49:07.902Z,3.45
2022-12-06T05:50:10.903Z,2.90
2022-12-06T05:51:13.096Z,4.45
2022-12-06T05:52:15.891Z,3.70
2022-12-06T05:53:18.726Z,4.50
2022-12-06T05:54:21.676Z,4.30
2022-12-06T05:55:24.123Z,2.70
2022-12-06T05:56:27.099Z,4.30
2022-12-06T05:57:29.691Z,4.00
2022-12-06T05:58:32.545Z,3.64
2022-12-06T05:59:39.918Z,4.27
2022-12-06T06:00:47.593Z,2.90
2022-12-06T06:01:50.401Z,4.10
2022-12-06T06:02:52.773Z,3.64
2022-12-06T06:03:55.104Z,4.50
2022-12-06T06:04:57.678Z,0.80
2022-12-06T06:06:00.109Z,3.80
2022-12-06T06:07:02.457Z,3.30
2022-12-06T06:08:05.192Z,2.80
2022-12-06T06:09:07.744Z,3.73
2022-12-06T06:10:10.803Z,4.00
2022-12-06T06:11:13.804Z,3.90
2022-12-06T10:40:04.188Z,22.40
2022-12-06T10:41:25.238Z,20.40
2022-12-06T10:42:31.168Z,20.00
2022-12-06T10:43:56.813Z,23.30
2022-12-06T10:45:10.100Z,20.50
2022-12-06T10:47:42.387Z,19.50
2022-12-06T10:49:11.249Z,23.00
2022-12-06T10:50:22.089Z,20.50
2022-12-06T10:51:27.855Z,19.50
2022-12-06T10:52:39.984Z,21.00
2022-12-06T10:53:45.410Z,19.30
2022-12-06T10:56:20.845Z,18.50
2022-12-06T10:58:46.983Z,19.00
2022-12-06T11:00:08.044Z,18.50
2022-12-06T11:02:38.558Z,17.30
2022-12-06T11:03:49.155Z,18.20
2022-12-06T11:04:52.638Z,19.40
2022-12-06T11:05:59.397Z,14.50
2022-12-06T11:07:15.458Z,19.70
2022-12-06T11:09:40.464Z,16.00
2022-12-06T11:10:44.855Z,16.82
2022-12-06T11:11:48.236Z,16.90
2022-12-06T11:14:25.092Z,16.70
2022-12-06T11:15:30.873Z,12.70
2022-12-06T11:16:44.887Z,15.60
2022-12-06T11:18:12.823Z,16.30
2022-12-06T11:19:36.315Z,17.80
2022-12-06T11:20:41.247Z,15.30
2022-12-06T11:21:49.935Z,15.70
2022-12-06T11:24:09.623Z,16.80
2022-12-06T11:25:18.742Z,18.00
2022-12-06T11:26:33.407Z,13.70
2022-12-06T11:27:39.704Z,16.60
2022-12-06T11:28:44.444Z,15.50
2022-12-06T11:29:47.805Z,15.60
2022-12-06T11:32:07.375Z,13.50
2022-12-06T11:33:10.710Z,12.50
2022-12-06T11:35:49.856Z,13.70
2022-12-06T11:36:58.358Z,14.45
2022-12-06T11:37:59.525Z,11.10
2022-12-06T11:39:02.238Z,15.00
2022-12-06T11:41:23.500Z,15.60
2022-12-06T11:42:26.829Z,13.20
2022-12-06T11:43:30.472Z,13.50
2022-12-06T11:45:57.512Z,13.90
2022-12-06T11:47:01.205Z,12.70
2022-12-06T11:48:18.858Z,12.64
2022-12-06T11:49:24.837Z,14.00
2022-12-06T11:50:28.643Z,13.00
2022-12-06T11:51:30.808Z,15.00
2022-12-06T11:52:38.374Z,12.20
2022-12-06T11:55:08.572Z,12.20
2022-12-06T11:56:23.034Z,11.30
2022-12-06T11:57:28.990Z,13.30
2022-12-06T11:58:36.727Z,12.50
2022-12-06T11:59:38.864Z,9.40
2022-12-06T12:02:18.074Z,13.50
2022-12-06T12:03:25.987Z,12.60
2022-12-06T12:04:43.177Z,11.20
2022-12-06T12:05:46.248Z,12.10
2022-12-06T12:06:54.693Z,12.60
2022-12-06T12:08:02.508Z,11.00
2022-12-06T12:09:05.059Z,12.60
2022-12-06T12:10:23.259Z,10.30
2022-12-06T12:12:45.074Z,11.70
2022-12-06T12:13:51.768Z,10.70
2022-12-06T12:14:56.099Z,11.80
2022-12-06T12:17:17.463Z,11.10
2022-12-06T12:19:52.752Z,13.70
2022-12-06T12:20:56.803Z,11.80
2022-12-06T12:21:59.742Z,11.20
2022-12-06T12:23:03.809Z,13.30
2022-12-06T12:24:08.632Z,12.80
2022-12-06T12:25:31.428Z,12.80
2022-12-06T12:27:54.496Z,12.90
2022-12-06T12:29:09.614Z,11.90
2022-12-06T12:30:18.927Z,11.90
2022-12-06T12:31:23.019Z,12.50
2022-12-06T12:32:25.396Z,11.60
2022-12-06T12:33:28.390Z,10.60
2022-12-06T12:34:30.859Z,10.50
2022-12-06T12:35:34.768Z,11.80
2022-12-06T12:36:38.558Z,11.50
2022-12-06T12:37:40.764Z,8.80
2022-12-06T12:38:57.639Z,12.20
2022-12-06T12:40:09.037Z,11.50
2022-12-06T12:41:23.031Z,10.00
2022-12-06T12:42:30.395Z,11.80
2022-12-06T12:43:32.821Z,9.90
2022-12-06T12:44:38.738Z,10.90
2022-12-06T12:47:19.650Z,11.70
2022-12-06T12:48:26.456Z,11.10
2022-12-06T12:50:55.267Z,11.00
2022-12-06T12:51:57.640Z,8.20
2022-12-06T12:53:00.947Z,11.80
2022-12-06T12:54:21.874Z,9.80
2022-12-06T12:55:26.694Z,12.90
2022-12-06T12:56:31.214Z,13.30
2022-12-06T12:57:33.369Z,12.00
2022-12-06T12:58:36.537Z,11.60
2022-12-06T12:59:39.980Z,11.50
2022-12-06T13:00:46.188Z,12.30
2022-12-06T13:01:58.161Z,12.70
2022-12-06T13:03:35.046Z,11.70
2022-12-06T13:05:46.972Z,10.80
2022-12-06T13:07:02.210Z,11.30
2022-12-06T13:08:13.069Z,11.70
2022-12-06T13:10:39.095Z,8.20
2022-12-06T13:11:46.802Z,8.70
2022-12-06T13:14:03.855Z,10.10
2022-12-06T13:15:18.116Z,11.90
2022-12-06T13:16:26.714Z,11.90
2022-12-06T13:17:29.988Z,9.80
2022-12-06T13:18:42.326Z,11.70
2022-12-06T13:19:59.554Z,9.80
2022-12-06T13:20:52.139Z,10.90
2022-12-06T13:21:54.453Z,11.10
2022-12-06T13:23:01.333Z,11.50
2022-12-06T13:24:13.740Z,12.80
2022-12-06T13:25:16.541Z,13.50
2022-12-06T13:26:28.468Z,12.00
2022-12-06T13:27:34.044Z,6.90
2022-12-06T13:28:39.805Z,10.00
2022-12-06T13:29:55.070Z,11.00
2022-12-06T13:31:08.399Z,11.40
2022-12-06T13:33:29.005Z,11.50
2022-12-06T13:34:39.324Z,10.50
2022-12-06T13:35:45.179Z,11.10
2022-12-06T13:36:48.298Z,11.20
2022-12-06T13:37:54.324Z,10.20
2022-12-06T13:38:57.947Z,10.70
2022-12-06T13:40:00.768Z,10.10
2022-12-06T13:42:24.963Z,9.40
2022-12-06T13:43:35.073Z,10.80
2022-12-06T13:46:10.346Z,11.90
2022-12-06T13:47:31.513Z,10.70
2022-12-06T13:48:57.742Z,11.00
2022-12-06T13:50:05.173Z,11.50
2022-12-06T13:51:12.060Z,7.70
2022-12-06T13:54:16.178Z,11.20
2022-12-06T13:55:27.988Z,10.80
2022-12-06T13:56:35.864Z,10.90
2022-12-06T13:57:38.585Z,10.80
2022-12-06T13:58:41.664Z,10.90
2022-12-06T13:59:45.465Z,10.90
2022-12-06T14:00:49.778Z,12.10
2022-12-06T14:01:55.082Z,9.50
2022-12-06T14:03:19.545Z,11.50
2022-12-06T14:08:16.127Z,11.56
2022-12-06T14:09:18.889Z,10.60
2022-12-06T14:10:22.900Z,11.20
2022-12-06T14:11:26.514Z,9.70
2022-12-06T14:12:29.779Z,10.60
2022-12-06T14:13:31.838Z,11.20
2022-12-06T14:14:35.245Z,10.60
2022-12-06T14:15:38.173Z,11.50
2022-12-06T14:16:47.400Z,11.64
2022-12-06T14:18:12.590Z,5.70
2022-12-06T14:18:53.770Z,10.80
2022-12-06T14:19:56.862Z,8.70
2022-12-06T14:20:59.727Z,11.60
2022-12-06T14:22:05.845Z,10.90
2022-12-06T14:24:40.623Z,10.60
2022-12-06T14:25:42.764Z,10.70
2022-12-06T14:26:45.196Z,9.60
2022-12-06T14:27:50.640Z,8.50
2022-12-06T14:28:54.776Z,10.60
2022-12-06T14:30:00.114Z,10.50
2022-12-06T14:31:06.981Z,10.40
2022-12-06T14:32:09.189Z,10.50
2022-12-06T14:33:20.363Z,10.55
2022-12-06T14:36:00.664Z,10.70
2022-12-06T14:37:19.158Z,9.30
2022-12-06T14:38:30.884Z,10.00
2022-12-06T14:39:34.336Z,7.20
2022-12-06T18:18:36.412Z,18.10
2022-12-06T18:19:39.634Z,18.40
2022-12-06T18:20:42.397Z,16.90
2022-12-06T18:21:45.175Z,13.18
2022-12-06T18:22:47.614Z,12.10
2022-12-06T18:24:19.788Z,16.30
2022-12-06T18:24:55.184Z,16.50
2022-12-06T18:26:02.387Z,15.30
2022-12-06T18:27:05.175Z,14.70
2022-12-06T18:28:07.933Z,15.90
2022-12-06T18:30:44.439Z,15.60
2022-12-06T18:31:47.958Z,17.00
2022-12-06T18:32:52.044Z,16.30
2022-12-06T18:33:58.620Z,16.50
2022-12-06T18:35:01.549Z,16.70
2022-12-06T18:36:05.873Z,16.30
2022-12-06T18:37:08.775Z,16.80
2022-12-06T18:38:14.226Z,13.90
2022-12-06T18:39:17.739Z,14.70
2022-12-06T18:40:20.308Z,16.90
2022-12-06T18:41:22.594Z,15.80
2022-12-06T18:42:26.210Z,15.50
2022-12-06T18:43:28.598Z,15.30
2022-12-06T18:44:30.744Z,17.50
2022-12-06T18:45:33.348Z,16.90
2022-12-06T18:46:36.149Z,15.10
2022-12-06T18:47:38.768Z,16.91
2022-12-06T18:48:42.463Z,15.50
2022-12-06T18:49:46.952Z,16.40
2022-12-06T18:50:49.807Z,16.90
2022-12-06T18:51:52.012Z,15.10
2022-12-06T18:52:55.520Z,15.70
2022-12-06T18:53:59.363Z,14.50
2022-12-06T18:55:02.928Z,15.20
2022-12-06T18:56:11.374Z,14.00
2022-12-06T18:57:14.927Z,15.90
2022-12-06T18:58:17.623Z,14.70
2022-12-06T18:59:25.942Z,12.90
2022-12-06T19:00:26.102Z,10.40
2022-12-06T19:01:30.925Z,11.40
2022-12-06T19:02:35.260Z,11.20
2022-12-06T19:03:37.563Z,10.90
2022-12-06T19:04:39.889Z,9.60
2022-12-06T19:06:01.785Z,12.00
2022-12-06T19:06:46.393Z,11.10
2022-12-06T19:07:52.095Z,12.70
2022-12-06T19:08:56.704Z,12.00
2022-12-06T19:09:59.599Z,12.40
2022-12-06T19:11:01.981Z,12.70
2022-12-06T19:12:04.433Z,12.30
2022-12-06T19:13:06.534Z,12.10
2022-12-06T19:14:09.290Z,14.80
2022-12-06T19:15:11.463Z,14.27
2022-12-06T19:16:15.969Z,12.20
2022-12-06T19:17:19.360Z,14.36
2022-12-06T19:18:21.589Z,14.10
2022-12-06T19:19:24.775Z,16.50
2022-12-06T19:20:29.345Z,14.70
2022-12-06T19:21:33.584Z,16.20
2022-12-06T19:22:36.721Z,15.50
2022-12-06T19:23:39.471Z,14.60
2022-12-06T19:24:41.930Z,17.00
2022-12-06T19:25:44.013Z,17.20
2022-12-06T19:26:46.418Z,14.90
2022-12-06T19:27:48.968Z,16.90
2022-12-06T19:28:52.231Z,17.50
2022-12-06T19:29:54.866Z,16.60
2022-12-06T19:32:31.900Z,16.80
2022-12-06T19:33:35.758Z,16.60
2022-12-06T19:34:38.245Z,18.30
2022-12-06T19:35:41.383Z,17.60
2022-12-06T19:36:44.064Z,14.00
2022-12-06T19:37:46.621Z,18.30
2022-12-06T19:38:51.238Z,19.70
2022-12-06T19:39:54.920Z,18.50
2022-12-06T19:40:58.375Z,17.20
2022-12-06T19:42:00.632Z,18.30
2022-12-06T19:43:03.886Z,20.20
2022-12-06T19:44:07.282Z,16.30
2022-12-06T19:45:10.423Z,20.30
2022-12-06T19:46:16.114Z,16.60
2022-12-06T19:48:51.403Z,14.70
2022-12-06T19:49:54.120Z,12.60
2022-12-06T19:51:02.168Z,19.50
2022-12-06T19:52:04.340Z,20.20
2022-12-06T19:53:08.037Z,20.00
2022-12-06T19:54:11.038Z,18.00
2022-12-06T19:55:13.733Z,0.60
2022-12-06T19:56:15.854Z,20.80
2022-12-06T19:57:19.855Z,17.82
2022-12-06T19:58:22.056Z,18.90
2022-12-06T19:59:27.317Z,19.40
2022-12-06T20:00:30.413Z,19.90
2022-12-06T20:01:33.616Z,21.20
2022-12-06T20:02:36.687Z,19.80
2022-12-06T20:03:40.791Z,18.40
2022-12-06T20:04:43.895Z,19.30
2022-12-06T20:05:46.013Z,20.10
2022-12-06T20:06:49.485Z,18.60
2022-12-06T20:07:52.316Z,19.20
2022-12-06T20:08:58.672Z,15.00
2022-12-06T20:10:02.039Z,16.40
2022-12-06T20:11:06.358Z,19.70
2022-12-06T20:12:09.035Z,19.10
2022-12-06T20:13:11.275Z,17.18
2022-12-06T20:14:15.274Z,17.80
2022-12-06T20:15:18.622Z,19.20
2022-12-06T20:16:20.942Z,18.82
2022-12-06T20:17:23.228Z,20.20
2022-12-06T20:18:27.400Z,19.80
2022-12-06T20:19:31.259Z,15.40
2022-12-06T20:20:36.136Z,15.00
2022-12-06T20:21:38.338Z,16.10
2022-12-06T20:22:41.495Z,15.80
2022-12-06T20:23:43.660Z,17.00
2022-12-06T20:24:46.291Z,17.40
2022-12-06T20:25:48.689Z,19.27
2022-12-06T20:26:53.420Z,19.60
2022-12-06T20:27:55.566Z,16.70
2022-12-06T20:28:58.733Z,16.80
2022-12-06T20:30:01.374Z,16.80
2022-12-06T20:31:13.326Z,17.80
2022-12-06T20:32:16.172Z,17.20
2022-12-06T20:33:21.045Z,14.10
2022-12-06T20:34:24.384Z,18.50
2022-12-06T20:35:27.671Z,17.50
2022-12-06T20:36:30.488Z,16.30
2022-12-06T20:37:32.629Z,17.70
2022-12-06T20:38:34.814Z,16.20
2022-12-06T20:39:36.906Z,14.10
2022-12-06T20:40:39.530Z,16.80
2022-12-06T20:41:42.600Z,16.00
2022-12-06T20:42:45.211Z,13.90
2022-12-06T20:43:48.386Z,16.10
2022-12-06T20:44:51.579Z,17.30
2022-12-06T20:45:53.972Z,15.40
2022-12-06T20:46:57.556Z,16.20
2022-12-06T20:47:59.880Z,16.50
2022-12-06T20:49:01.992Z,15.30
2022-12-06T20:50:05.761Z,16.20
2022-12-06T20:51:09.791Z,16.50
2022-12-06T20:52:11.942Z,13.10
2022-12-06T20:53:15.211Z,17.50
2022-12-06T20:54:19.081Z,17.60
2022-12-06T20:55:21.196Z,17.70
2022-12-06T20:56:24.335Z,14.90
2022-12-06T21:00:25.515Z,18.70
2022-12-06T21:01:40.415Z,18.10
2022-12-06T21:02:43.972Z,19.36
2022-12-06T21:03:50.750Z,14.80
2022-12-06T21:04:55.159Z,17.10
2022-12-06T21:07:11.106Z,18.20
2022-12-06T21:08:13.242Z,16.60
2022-12-06T21:09:16.073Z,19.10
2022-12-06T21:10:18.756Z,16.20
2022-12-06T21:11:23.290Z,19.50
2022-12-06T21:12:25.894Z,17.00
2022-12-06T21:13:29.351Z,18.00
2022-12-06T21:14:31.526Z,19.00
2022-12-06T21:15:34.730Z,17.60
2022-12-06T21:16:37.700Z,16.60
2022-12-06T21:17:41.367Z,19.20
2022-12-06T21:18:45.049Z,19.60
2022-12-06T21:19:47.672Z,18.90
2022-12-06T21:20:50.813Z,20.00
2022-12-06T21:21:53.167Z,19.50
2022-12-06T21:22:55.367Z,19.90
2022-12-06T21:24:00.933Z,18.40
2022-12-06T21:25:07.404Z,19.00
2022-12-06T21:26:10.322Z,18.70
2022-12-06T21:27:27.691Z,19.80
2022-12-06T21:28:30.554Z,19.10
2022-12-06T21:29:33.223Z,19.20
2022-12-06T21:30:35.790Z,18.90
2022-12-06T21:31:38.454Z,20.00
2022-12-06T21:32:41.231Z,19.36
2022-12-06T21:33:43.321Z,18.60
2022-12-06T21:34:46.861Z,18.30
2022-12-06T21:35:50.687Z,16.80
2022-12-06T21:36:52.957Z,19.55
2022-12-06T21:37:55.073Z,19.70
2022-12-06T21:38:57.555Z,17.60
2022-12-06T21:40:00.926Z,18.30
2022-12-06T21:41:05.352Z,14.00
2022-12-06T21:42:08.547Z,18.00
2022-12-06T21:43:10.679Z,20.00
2022-12-06T21:44:12.687Z,16.90
2022-12-06T21:45:14.829Z,18.00
2022-12-06T21:46:22.371Z,14.90
2022-12-06T21:47:25.696Z,16.80
2022-12-06T21:48:27.842Z,17.30
2022-12-06T21:49:30.896Z,18.70
2022-12-06T21:50:33.728Z,17.10
2022-12-06T21:51:36.032Z,19.36
2022-12-06T21:52:38.158Z,18.80
2022-12-06T21:53:40.772Z,15.70
2022-12-06T21:54:43.151Z,19.00
2022-12-06T21:55:45.819Z,16.30
2022-12-06T21:56:49.057Z,15.18
2022-12-06T21:57:51.534Z,18.70
2022-12-06T21:58:53.965Z,15.45
2022-12-06T21:59:56.088Z,15.80
2022-12-06T22:02:17.289Z,16.60
2022-12-06T22:03:23.183Z,17.30
2022-12-06T22:04:26.031Z,16.30
2022-12-06T22:05:28.632Z,16.10
2022-12-06T22:06:31.492Z,16.90
2022-12-06T22:07:34.993Z,15.27
2022-12-06T22:08:39.315Z,16.90
2022-12-06T22:09:42.091Z,17.00
2022-12-06T22:11:56.858Z,14.50
2022-12-06T22:13:00.776Z,16.40
2022-12-06T22:14:02.920Z,14.10
2022-12-06T22:15:07.139Z,13.40
2022-12-06T22:16:10.981Z,16.00
2022-12-06T22:17:14.426Z,14.60
2022-12-06T22:18:16.570Z,12.80
